Time;durP1;ratioP1;P1;durP2;ratioP2;P2;SDS_P1;SDS_P2;PMS_P1;PMS_P2;Temp;Humidity;BMP_temperature;BMP_pressure;BME280_temperature;BME280_humidity;BME280_pressure;Samples;Min_cycle;Max_cycle;Signal;HPM_P1;HPM_P2
2022/09/24 00:01:39;;;;;;;54.33;32.55;;;;;;;12.72;100.00;101237.53;5046820;28;20048;-68
2022/09/24 00:04:09;;;;;;;56.30;32.33;;;;;;;12.71;100.00;101233.09;5045613;28;20068;-68
2022/09/24 00:06:40;;;;;;;54.53;33.40;;;;;;;12.71;100.00;101228.44;5047428;28;20047;-68
2022/09/24 00:09:06;;;;;;;53.22;31.80;;;;;;;12.70;100.00;101231.44;5042800;28;20408;-68
2022/09/24 00:11:31;;;;;;;53.42;32.22;;;;;;;12.67;100.00;101227.25;5046786;28;20083;-68
2022/09/24 00:13:58;;;;;;;51.88;32.15;;;;;;;12.66;100.00;101227.47;5046538;28;20024;-68
2022/09/24 00:16:26;;;;;;;54.00;30.50;;;;;;;12.64;100.00;101226.88;5046734;28;20039;-68
2022/09/24 00:18:52;;;;;;;50.90;30.17;;;;;;;12.67;100.00;101226.38;5044660;28;20031;-68
2022/09/24 00:21:20;;;;;;;49.50;29.65;;;;;;;12.60;100.00;101215.47;5047143;28;20021;-68
2022/09/24 00:23:50;;;;;;;48.92;29.85;;;;;;;12.58;100.00;101220.38;5046596;28;20353;-66
2022/09/24 00:29:00;;;;;;;48.20;28.38;;;;;;;12.56;100.00;101218.91;5044032;28;20130;-67
2022/09/24 00:31:26;;;;;;;45.25;26.50;;;;;;;12.57;100.00;101220.59;5046369;28;20067;-67
2022/09/24 00:33:53;;;;;;;45.60;27.25;;;;;;;12.53;100.00;101219.41;5045957;28;20025;-66
2022/09/24 00:36:20;;;;;;;46.05;27.45;;;;;;;12.52;100.00;101206.69;5046309;28;20028;-66
2022/09/24 00:38:52;;;;;;;48.42;28.88;;;;;;;12.52;100.00;101209.44;5042401;28;20033;-66
2022/09/24 00:41:19;;;;;;;49.08;27.98;;;;;;;12.51;100.00;101207.75;5046786;28;20939;-66
2022/09/24 00:43:47;;;;;;;45.03;27.15;;;;;;;12.54;100.00;101207.31;5046549;28;20041;-66
2022/09/24 00:46:29;;;;;;;46.75;27.73;;;;;;;12.55;100.00;101207.06;5046006;28;20114;-66
2022/09/24 00:49:01;;;;;;;47.90;28.00;;;;;;;12.53;100.00;101194.63;5044765;28;20312;-66
2022/09/24 00:51:29;;;;;;;48.33;27.25;;;;;;;12.54;100.00;101199.03;5046701;28;20056;-66
2022/09/24 00:53:59;;;;;;;47.65;27.27;;;;;;;12.54;100.00;101196.28;5045643;28;20037;-66
2022/09/24 00:56:26;;;;;;;48.15;27.70;;;;;;;12.53;100.00;101195.44;5031692;28;20059;-66
2022/09/24 00:58:55;;;;;;;50.05;26.23;;;;;;;12.51;100.00;101189.31;5049520;28;20025;-66
2022/09/24 01:01:24;;;;;;;49.88;27.77;;;;;;;12.52;100.00;101187.41;5045326;28;20071;-66
2022/09/24 01:03:52;;;;;;;48.83;27.52;;;;;;;12.52;100.00;101192.91;5045410;28;20087;-66
2022/09/24 01:06:18;;;;;;;47.97;27.60;;;;;;;12.52;100.00;101182.75;5045521;28;20033;-66
2022/09/24 01:08:44;;;;;;;49.85;28.27;;;;;;;12.50;100.00;101184.06;5044670;28;20079;-66
2022/09/24 01:11:45;;;;;;;48.03;27.13;;;;;;;12.52;100.00;101180.00;5044954;28;20384;-66
2022/09/24 01:14:33;;;;;;;46.60;26.40;;;;;;;12.54;100.00;101174.25;5014457;28;20067;-66
2022/09/24 01:17:27;;;;;;;48.63;28.10;;;;;;;12.54;100.00;101169.56;5044735;28;20028;-66
2022/09/24 01:20:13;;;;;;;48.25;27.02;;;;;;;12.53;100.00;101172.56;5044200;28;20049;-66
2022/09/24 01:22:41;;;;;;;48.92;27.15;;;;;;;12.52;100.00;101166.22;5050182;28;20044;-66
2022/09/24 01:25:22;;;;;;;48.22;26.20;;;;;;;12.52;100.00;101157.97;5049729;28;20043;-66
2022/09/24 01:28:03;;;;;;;47.03;26.00;;;;;;;12.54;100.00;101169.56;5048749;28;20451;-66
2022/09/24 01:30:32;;;;;;;45.70;25.95;;;;;;;12.52;100.00;101157.97;5050309;28;20036;-66
2022/09/24 01:33:02;;;;;;;47.03;26.00;;;;;;;12.51;100.00;101155.41;5049139;28;20033;-66
2022/09/24 01:35:33;;;;;;;43.83;25.50;;;;;;;12.51;100.00;101149.91;5049709;28;20078;-66
2022/09/24 01:38:03;;;;;;;46.53;25.40;;;;;;;12.51;100.00;101155.41;5045390;28;20056;-68
2022/09/24 01:40:29;;;;;;;46.65;26.00;;;;;;;12.52;100.00;101146.06;5049882;28;20356;-66
2022/09/24 01:42:56;;;;;;;43.00;25.35;;;;;;;12.53;100.00;101145.84;5049040;28;20037;-66
2022/09/24 01:45:23;;;;;;;44.47;24.90;;;;;;;12.53;100.00;101145.03;5047073;28;20436;-66
2022/09/24 01:47:49;;;;;;;41.58;24.25;;;;;;;12.54;100.00;101138.44;5049067;28;20425;-66
2022/09/24 01:50:17;;;;;;;41.90;23.30;;;;;;;12.52;100.00;101140.56;5049856;28;20696;-66
2022/09/24 01:52:49;;;;;;;;;;;;;;;12.58;100.00;101139.63;5049685;28;20102;-66
2022/09/24 01:55:18;;;;;;;44.13;23.65;;;;;;;12.52;100.00;101141.44;5043588;28;19923;-66
2022/09/24 01:57:49;;;;;;;45.35;24.90;;;;;;;12.53;100.00;101139.50;5048510;28;20530;-66
2022/09/24 02:00:18;;;;;;;44.38;25.58;;;;;;;12.54;100.00;101138.44;5049833;28;20343;-66
2022/09/24 02:02:48;;;;;;;45.22;25.45;;;;;;;12.53;100.00;101137.59;5049762;28;20083;-66
2022/09/24 02:05:22;;;;;;;47.58;26.48;;;;;;;12.52;100.00;101133.16;5050460;28;20131;-66
2022/09/24 02:08:02;;;;;;;47.13;25.90;;;;;;;12.55;100.00;101134.59;5043201;28;20028;-66
2022/09/24 02:10:32;;;;;;;44.80;25.60;;;;;;;12.54;100.00;101128.25;5046049;28;20483;-66
2022/09/24 02:13:03;;;;;;;46.90;25.58;;;;;;;12.54;100.00;101116.38;5048209;28;20080;-66
2022/09/24 02:15:36;;;;;;;46.20;25.92;;;;;;;12.55;100.00;101131.84;5049282;28;20021;-66
2022/09/24 02:18:13;;;;;;;50.42;26.30;;;;;;;12.55;100.00;101123.56;5047934;28;20036;-66
2022/09/24 02:20:42;;;;;;;48.60;26.38;;;;;;;12.56;100.00;101125.25;5047589;28;20037;-66
2022/09/24 02:23:10;;;;;;;47.47;25.55;;;;;;;12.55;100.00;101126.31;5048538;28;20029;-66
2022/09/24 02:25:51;;;;;;;48.00;25.33;;;;;;;12.57;100.00;101121.41;5048644;28;20480;-66
2022/09/24 02:28:17;;;;;;;47.42;27.27;;;;;;;12.55;100.00;101126.31;5049998;28;20024;-66
2022/09/24 02:31:04;;;;;;;53.35;29.13;;;;;;;12.56;100.00;101117.81;5047557;28;20056;-66
2022/09/24 02:36:17;;;;;;;54.17;27.85;;;;;;;12.54;100.00;101116.38;5047908;28;20438;-66
2022/09/24 02:38:45;;;;;;;46.75;26.40;;;;;;;12.53;100.00;101117.47;5029243;28;20026;-66
2022/09/24 02:41:10;;;;;;;51.17;27.20;;;;;;;12.53;100.00;101111.97;5043991;28;20025;-66
2022/09/24 02:43:35;;;;;;;51.03;27.35;;;;;;;12.50;100.00;101110.50;5048970;28;20037;-66
2022/09/24 02:46:01;;;;;;;51.90;26.38;;;;;;;12.49;100.00;101110.75;5048817;28;20032;-66
2022/09/24 02:48:27;;;;;;;49.47;26.90;;;;;;;12.46;100.00;101103.78;5044749;28;20040;-66
2022/09/24 02:50:52;;;;;;;51.28;28.30;;;;;;;12.46;100.00;101103.78;5048167;28;20033;-66
2022/09/24 02:53:18;;;;;;;50.40;26.85;;;;;;;12.44;100.00;101104.03;5048627;28;20472;-66
2022/09/24 02:55:43;;;;;;;47.92;26.55;;;;;;;12.44;100.00;101098.53;5049256;28;20021;-66
2022/09/24 02:58:09;;;;;;;49.58;27.02;;;;;;;12.44;100.00;101095.75;5046392;28;20029;-66
2022/09/24 03:00:34;;;;;;;47.38;27.58;;;;;;;12.44;100.00;101100.44;5048861;28;20577;-66
2022/09/24 03:02:59;;;;;;;50.50;28.33;;;;;;;12.45;100.00;101102.94;5047354;28;20025;-66
2022/09/24 03:05:24;;;;;;;57.40;30.10;;;;;;;12.49;100.00;101096.97;5048176;28;20153;-66
2022/09/24 03:07:50;;;;;;;50.30;28.08;;;;;;;12.50;100.00;101098.66;5045948;28;20089;-66
2022/09/24 03:10:15;;;;;;;56.90;29.67;;;;;;;12.50;100.00;101106.91;5048517;28;20070;-66
2022/09/24 03:12:42;;;;;;;57.75;30.85;;;;;;;12.49;100.00;101096.97;5048104;28;20419;-66
2022/09/24 03:15:09;;;;;;;56.90;32.13;;;;;;;12.52;100.00;101096.47;5048468;28;20144;-66
2022/09/24 03:17:35;;;;;;;58.50;31.48;;;;;;;12.51;100.00;101094.81;5047990;28;20395;-66
2022/09/24 03:20:01;;;;;;;61.47;31.75;;;;;;;12.51;100.00;101094.81;5047463;28;20032;-66
2022/09/24 03:22:26;;;;;;;60.60;34.33;;;;;;;12.51;100.00;101092.06;5048729;28;20033;-66
2022/09/24 03:24:52;;;;;;;61.53;32.53;;;;;;;12.48;100.00;101084.28;5047984;28;20106;-66
2022/09/24 03:27:18;;;;;;;65.70;34.85;;;;;;;12.48;100.00;101087.88;5048488;28;20111;-66
2022/09/24 03:32:28;;;;;;;70.13;37.13;;;;;;;12.45;100.00;101080.06;5047987;28;20044;-66
2022/09/24 03:34:53;;;;;;;69.10;37.10;;;;;;;12.46;100.00;101090.84;5048789;28;20025;-66
2022/09/24 03:37:18;;;;;;;73.10;38.08;;;;;;;12.45;100.00;101085.56;5046063;28;20023;-66
2022/09/24 03:39:43;;;;;;;77.63;38.80;;;;;;;12.44;100.00;101084.75;5048628;28;20035;-66
2022/09/24 03:42:09;;;;;;;75.70;39.08;;;;;;;12.46;100.00;101084.50;5047439;28;20487;-66
2022/09/24 03:44:34;;;;;;;80.25;40.55;;;;;;;12.46;100.00;101085.34;5047767;28;20065;-66
2022/09/24 03:47:00;;;;;;;77.38;42.03;;;;;;;12.46;100.00;101079.81;5046929;28;20064;-66
2022/09/24 03:49:25;;;;;;;80.65;41.63;;;;;;;12.43;100.00;101083.06;5049299;28;20025;-67
2022/09/24 03:51:50;;;;;;;75.18;40.80;;;;;;;12.43;100.00;101068.47;5039018;28;20416;-66
2022/09/24 03:54:16;;;;;;;83.28;43.60;;;;;;;12.42;100.00;101073.13;5046605;28;20541;-66
2022/09/24 03:56:42;;;;;;;77.25;41.75;;;;;;;12.41;100.00;101074.19;5047559;28;20029;-66
2022/09/24 03:59:09;;;;;;;87.00;44.05;;;;;;;12.42;100.00;101070.38;5048107;28;20368;-66
2022/09/24 04:01:36;;;;;;;90.50;43.88;;;;;;;12.41;100.00;101071.44;5047767;28;20021;-66
2022/09/24 04:04:02;;;;;;;88.38;44.65;;;;;;;12.41;100.00;101071.44;5047125;28;20037;-66
2022/09/24 04:06:28;;;;;;;87.45;45.00;;;;;;;12.40;100.00;101072.50;5046270;28;20606;-66
2022/09/24 04:08:53;;;;;;;82.50;44.13;;;;;;;12.43;100.00;101071.22;5045864;28;20052;-66
2022/09/24 04:11:18;;;;;;;92.38;45.28;;;;;;;12.41;100.00;101065.94;5046548;28;20043;-66
2022/09/24 04:13:44;;;;;;;91.30;45.63;;;;;;;12.42;100.00;101058.53;5048675;28;20028;-66
2022/09/24 04:16:09;;;;;;;93.18;45.45;;;;;;;12.43;100.00;101063.78;5044380;28;20434;-66
2022/09/24 04:18:34;;;;;;;95.95;46.45;;;;;;;12.42;100.00;101059.38;5045350;28;20025;-68
2022/09/24 04:21:00;;;;;;;94.53;45.88;;;;;;;12.43;100.00;101054.69;5046867;28;20025;-69
2022/09/24 04:23:26;;;;;;;97.90;48.60;;;;;;;12.42;100.00;101059.38;5047011;28;20075;-66
2022/09/24 04:25:53;;;;;;;101.10;48.83;;;;;;;12.42;100.00;101053.03;5047771;28;20134;-66
2022/09/24 04:28:18;;;;;;;100.68;48.50;;;;;;;12.42;100.00;101051.09;5046750;28;20029;-66
2022/09/24 04:30:43;;;;;;;97.03;47.45;;;;;;;12.42;100.00;101056.59;5047811;28;20047;-66
2022/09/24 04:33:09;;;;;;;93.97;47.13;;;;;;;12.42;100.00;101053.03;5046229;28;20050;-66
2022/09/24 04:35:35;;;;;;;98.80;46.83;;;;;;;12.44;100.00;101050.84;5046769;28;20108;-66
2022/09/24 04:38:03;;;;;;;96.70;46.58;;;;;;;12.43;100.00;101051.94;5045551;28;20420;-66
2022/09/24 04:40:28;;;;;;;95.00;44.65;;;;;;;12.45;100.00;101053.34;5046464;28;20068;-66
2022/09/24 04:42:54;;;;;;;93.38;45.88;;;;;;;12.42;100.00;101048.34;5047848;28;20037;-66
2022/09/24 04:45:20;;;;;;;91.07;44.95;;;;;;;12.41;100.00;101052.16;5047620;28;20029;-66
2022/09/24 04:47:52;;;;;;;89.68;44.55;;;;;;;12.42;100.00;101055.78;5046136;28;20029;-67
2022/09/24 04:50:18;;;;;;;92.75;44.47;;;;;;;12.41;100.00;101051.31;5047024;28;20037;-66
2022/09/24 04:52:43;;;;;;;96.97;45.55;;;;;;;12.40;100.00;101050.47;5047298;28;20043;-66
2022/09/24 04:55:09;;;;;;;94.85;45.20;;;;;;;12.40;100.00;101049.66;5047910;28;20017;-66
2022/09/24 04:57:35;;;;;;;91.00;47.13;;;;;;;12.40;100.00;101057.91;5051586;28;20456;-66
2022/09/24 05:00:04;;;;;;;95.30;46.25;;;;;;;12.40;100.00;101046.88;5048935;28;20033;-67
2022/09/24 05:02:29;;;;;;;89.00;46.03;;;;;;;12.37;100.00;101045.47;5050364;28;20061;-66
2022/09/24 05:04:54;;;;;;;86.32;43.17;;;;;;;12.36;100.00;101048.44;5050834;28;20076;-66
2022/09/24 05:07:19;;;;;;;90.57;46.45;;;;;;;12.34;100.00;101040.41;5049649;28;20027;-66
2022/09/24 05:09:45;;;;;;;94.72;43.28;;;;;;;12.34;100.00;101048.69;5050764;28;20056;-66
2022/09/24 05:12:10;;;;;;;85.15;43.22;;;;;;;12.32;100.00;101056.34;5050051;28;20033;-66
2022/09/24 05:14:36;;;;;;;85.28;42.03;;;;;;;12.34;100.00;101047.84;5050975;28;20582;-66
2022/09/24 05:17:01;;;;;;;88.47;42.75;;;;;;;12.33;100.00;101051.69;5048003;28;20025;-66
2022/09/24 05:19:27;;;;;;;87.65;41.17;;;;;;;12.30;100.00;101044.72;5050911;28;20472;-66
2022/09/24 05:21:52;;;;;;;86.82;41.55;;;;;;;12.29;100.00;101051.31;5051048;28;20345;-66
2022/09/24 05:24:17;;;;;;;84.32;41.88;;;;;;;12.29;100.00;101053.22;5049301;28;20044;-66
2022/09/24 05:29:26;;;;;;;78.55;40.78;;;;;;;12.29;100.00;101050.47;5050910;28;20139;-66
2022/09/24 05:31:51;;;;;;;76.57;38.83;;;;;;;12.29;100.00;101048.56;5049063;28;20041;-66
2022/09/24 05:34:17;;;;;;;77.38;41.08;;;;;;;12.29;100.00;101054.06;5049315;28;20032;-66
2022/09/24 05:36:43;;;;;;;72.22;38.85;;;;;;;12.30;100.00;101047.47;5049866;28;20043;-66
2022/09/24 05:39:10;;;;;;;60.53;35.50;;;;;;;12.29;100.00;101047.72;5050075;28;20044;-66
2022/09/24 05:41:35;;;;;;;62.33;35.42;;;;;;;12.30;100.00;101055.72;5044516;28;20042;-66
2022/09/24 05:44:01;;;;;;;55.08;32.45;;;;;;;12.32;100.00;101053.59;5045592;28;20048;-66
2022/09/24 05:46:28;;;;;;;53.65;32.13;;;;;;;12.33;100.00;101062.69;5050215;28;20467;-67
2022/09/24 05:48:53;;;;;;;53.60;31.13;;;;;;;12.34;100.00;101058.88;5050717;28;20017;-67
2022/09/24 05:51:18;;;;;;;46.58;29.60;;;;;;;12.36;100.00;101063.03;5050448;28;20021;-67
2022/09/24 05:53:44;;;;;;;48.22;28.88;;;;;;;12.35;100.00;101066.88;5046788;28;20110;-67
2022/09/24 05:56:09;;;;;;;44.42;28.58;;;;;;;12.36;100.00;101062.22;5049826;28;20494;-67
2022/09/24 05:58:35;;;;;;;43.70;27.23;;;;;;;12.38;100.00;101060.91;5050528;28;20029;-67
2022/09/24 06:01:00;;;;;;;39.88;26.13;;;;;;;12.37;100.00;101067.50;5046286;28;20418;-67
2022/09/24 06:03:28;;;;;;;37.78;25.15;;;;;;;12.37;100.00;101067.50;5049729;28;20083;-66
2022/09/24 06:05:55;;;;;;;36.40;24.15;;;;;;;12.38;100.00;101068.34;5047416;28;20499;-67
2022/09/24 06:08:20;;;;;;;34.97;24.52;;;;;;;12.37;100.00;101066.66;5051141;28;20035;-68
2022/09/24 06:10:46;;;;;;;34.13;23.73;;;;;;;12.38;100.00;101076.59;5046835;28;20395;-67
2022/09/24 06:13:16;;;;;;;32.25;23.27;;;;;;;12.38;100.00;101071.09;5039027;28;20033;-67
2022/09/24 06:15:42;;;;;;;30.25;21.60;;;;;;;12.37;100.00;101073.00;5046363;28;20062;-68
2022/09/24 06:18:08;;;;;;;27.95;21.23;;;;;;;12.37;100.00;101077.69;5049040;28;20025;-67
2022/09/24 06:20:34;;;;;;;31.75;21.63;;;;;;;12.39;100.00;101078.28;5045370;28;20029;-67
2022/09/24 06:22:59;;;;;;;26.85;21.08;;;;;;;12.38;100.00;101074.69;5049254;28;20086;-67
2022/09/24 06:25:25;;;;;;;28.55;21.15;;;;;;;12.37;100.00;101078.53;5046924;28;20098;-67
2022/09/24 06:28:02;;;;;;;26.73;19.30;;;;;;;12.38;100.00;101080.19;5049661;28;20102;-67
2022/09/24 06:30:28;;;;;;;25.98;20.55;;;;;;;12.38;100.00;101082.09;5048070;28;20017;-67
2022/09/24 06:32:54;;;;;;;25.55;19.50;;;;;;;12.40;100.00;101079.94;5044976;28;20669;-67
2022/09/24 06:35:19;;;;;;;24.02;18.95;;;;;;;12.39;100.00;101086.53;5049172;28;20062;-67
2022/09/24 06:37:48;;;;;;;24.63;19.35;;;;;;;12.39;100.00;101086.53;5050307;28;20674;-67
2022/09/24 06:40:13;;;;;;;;;;;;;;;12.45;100.00;101091.09;5049718;28;20032;-67
2022/09/24 06:42:38;;;;;;;22.33;17.67;;;;;;;12.38;100.00;101085.69;5048696;28;19921;-67
2022/09/24 06:45:04;;;;;;;23.90;19.45;;;;;;;12.36;100.00;101092.50;5048242;28;20123;-67
2022/09/24 06:47:30;;;;;;;21.67;17.95;;;;;;;12.35;100.00;101094.44;5028877;28;20026;-68
2022/09/24 06:49:55;;;;;;;22.08;17.92;;;;;;;12.34;100.00;101090.00;5029093;28;20098;-68
2022/09/24 06:52:22;;;;;;;21.90;17.95;;;;;;;12.33;100.00;101096.59;5041320;28;20483;-68
2022/09/24 06:54:47;;;;;;;21.95;17.70;;;;;;;12.36;100.00;101098.00;5048847;28;20475;-68
2022/09/24 06:57:14;;;;;;;22.17;17.60;;;;;;;12.35;100.00;101097.19;5048055;28;20056;-68
2022/09/24 06:59:40;;;;;;;19.98;16.63;;;;;;;12.37;100.00;101099.72;5048448;28;20029;-70
2022/09/24 07:02:07;;;;;;;22.13;17.50;;;;;;;12.38;100.00;101101.38;5045791;28;20031;-67
2022/09/24 07:04:32;;;;;;;22.15;18.08;;;;;;;12.37;100.00;101095.03;5047590;28;20399;-69
2022/09/24 07:09:41;;;;;;;21.40;17.90;;;;;;;12.40;100.00;101099.22;5048981;28;20102;-69
2022/09/24 07:12:07;;;;;;;21.38;17.58;;;;;;;12.39;100.00;101101.16;5046018;28;20471;-68
2022/09/24 07:14:33;;;;;;;21.33;17.23;;;;;;;12.41;100.00;101106.41;5046741;28;20106;-68
2022/09/24 07:16:59;;;;;;;21.60;17.63;;;;;;;12.42;100.00;101108.09;5047135;28;20116;-67
2022/09/24 07:19:24;;;;;;;20.95;17.45;;;;;;;12.42;100.00;101113.63;5047235;28;20029;-67
2022/09/24 07:21:49;;;;;;;20.85;16.92;;;;;;;12.44;100.00;101115.03;5048041;28;20044;-67
2022/09/24 07:24:14;;;;;;;20.30;16.45;;;;;;;12.43;100.00;101113.38;5048577;28;20044;-67
2022/09/24 07:26:40;;;;;;;19.95;17.30;;;;;;;12.44;100.00;101112.28;5047641;28;20025;-67
2022/09/24 07:29:05;;;;;;;21.52;17.40;;;;;;;12.45;100.00;101116.72;5045445;28;20031;-67
2022/09/24 07:31:31;;;;;;;20.05;17.13;;;;;;;12.48;100.00;101114.59;5046050;28;20032;-67
2022/09/24 07:33:56;;;;;;;22.30;17.05;;;;;;;12.49;100.00;101113.50;5044740;28;20029;-67
2022/09/24 07:36:21;;;;;;;20.63;17.35;;;;;;;12.49;100.00;101113.50;5042679;28;20067;-68
2022/09/24 07:38:47;;;;;;;19.83;17.15;;;;;;;12.50;100.00;101116.00;5046948;28;20060;-67
2022/09/24 07:41:12;;;;;;;23.35;18.98;;;;;;;12.51;100.00;101125.94;5047312;28;20364;-68
2022/09/24 07:43:38;;;;;;;21.42;17.38;;;;;;;12.51;100.00;101128.69;5045353;28;20973;-68
2022/09/24 07:46:03;;;;;;;22.00;18.10;;;;;;;12.54;100.00;101125.50;5046659;28;20028;-67
2022/09/24 07:48:28;;;;;;;22.00;18.88;;;;;;;12.55;100.00;101129.91;5046112;28;20029;-68
2022/09/24 07:50:54;;;;;;;22.02;18.45;;;;;;;12.57;100.00;101127.78;5045764;28;20017;-67
2022/09/24 07:53:20;;;;;;;23.50;18.42;;;;;;;12.61;100.00;101133.63;5048407;28;20051;-68
2022/09/24 07:55:46;;;;;;;22.25;18.70;;;;;;;12.63;100.00;101137.00;5048723;28;20037;-68
2022/09/24 07:58:12;;;;;;;22.10;18.52;;;;;;;12.63;100.00;101139.75;5046294;28;20036;-68
2022/09/24 08:00:38;;;;;;;23.55;19.58;;;;;;;12.62;100.00;101133.41;5046178;28;20988;-68
2022/09/24 08:03:04;;;;;;;24.65;19.10;;;;;;;12.61;100.00;101133.63;5046400;28;20033;-67
2022/09/24 08:05:30;;;;;;;25.45;19.08;;;;;;;12.61;100.00;101136.38;5047353;28;20037;-68
2022/09/24 08:07:56;;;;;;;24.70;20.23;;;;;;;12.62;100.00;101136.19;5043944;28;20186;-68
2022/09/24 08:10:22;;;;;;;24.05;18.73;;;;;;;12.65;100.00;101148.63;5047140;28;20061;-68
2022/09/24 08:12:48;;;;;;;25.58;20.55;;;;;;;12.65;100.00;101145.88;5047424;28;20041;-66
2022/09/24 08:15:14;;;;;;;24.92;19.75;;;;;;;12.68;100.00;101150.91;5048201;28;20095;-66
2022/09/24 08:17:40;;;;;;;26.95;22.00;;;;;;;12.74;100.00;101149.97;5047360;28;20047;-67
2022/09/24 08:20:05;;;;;;;26.00;21.73;;;;;;;12.75;100.00;101154.38;5046883;28;20047;-66
2022/09/24 08:22:32;;;;;;;26.70;21.63;;;;;;;12.75;100.00;101154.38;5045663;28;20045;-66
2022/09/24 08:24:57;;;;;;;27.23;21.40;;;;;;;12.78;100.00;101153.09;5047678;28;20064;-67
2022/09/24 08:27:24;;;;;;;32.38;23.17;;;;;;;12.79;100.00;101154.75;5046725;28;20029;-67
2022/09/24 08:29:50;;;;;;;29.38;22.73;;;;;;;12.79;100.00;101152.00;5046942;28;20100;-67
2022/09/24 08:32:16;;;;;;;29.33;22.95;;;;;;;12.77;100.00;101160.50;5046819;28;20543;-66
2022/09/24 08:34:42;;;;;;;29.65;23.65;;;;;;;12.79;100.00;101158.34;5047434;28;20036;-66
2022/09/24 08:37:07;;;;;;;30.90;23.40;;;;;;;12.83;100.00;101159.56;5046273;28;20025;-66
2022/09/24 08:39:33;;;;;;;32.17;23.73;;;;;;;12.85;100.00;101159.31;5047695;28;20086;-66
2022/09/24 08:42:05;;;;;;;30.90;23.67;;;;;;;12.87;100.00;101168.19;5046833;28;20041;-67
2022/09/24 08:47:58;;;;;;;34.50;25.83;;;;;;;12.91;100.00;101167.47;5046510;28;20040;-66
2022/09/24 08:50:26;;;;;;;33.13;25.05;;;;;;;12.88;100.00;101173.47;5046712;28;20028;-66
2022/09/24 08:53:10;;;;;;;;;;;;;;;12.96;100.00;101178.63;5047410;28;20041;-66
2022/09/24 08:55:41;;;;;;;34.15;24.55;;;;;;;12.96;100.00;101175.03;5047089;28;19960;-67
2022/09/24 08:58:09;;;;;;;33.20;24.95;;;;;;;12.93;100.00;101170.00;5047096;28;20029;-66
2022/09/24 09:00:50;;;;;;;34.15;25.85;;;;;;;12.96;100.00;101175.03;5045493;28;20037;-66
2022/09/24 09:03:38;;;;;;;35.83;25.30;;;;;;;12.95;100.00;101176.94;5027858;28;20421;-66
2022/09/24 09:06:14;;;;;;;34.80;25.52;;;;;;;12.93;100.00;101178.28;5036091;28;20037;-66
2022/09/24 09:09:06;;;;;;;34.22;25.25;;;;;;;12.95;100.00;101182.47;5043613;28;20091;-66
2022/09/24 09:11:33;;;;;;;38.10;26.50;;;;;;;12.94;100.00;101180.78;5016955;28;20048;-66
2022/09/24 09:14:26;;;;;;;33.72;25.63;;;;;;;12.92;100.00;101185.69;5027183;28;20383;-67
2022/09/24 09:16:57;;;;;;;35.70;25.88;;;;;;;12.92;100.00;101185.69;5027836;28;20046;-67
2022/09/24 09:19:28;;;;;;;34.05;25.80;;;;;;;12.94;100.00;101182.72;5046841;28;20055;-67
2022/09/24 09:22:04;;;;;;;33.92;25.27;;;;;;;12.96;100.00;101189.66;5046681;28;20039;-67
2022/09/24 09:24:50;;;;;;;32.95;24.92;;;;;;;13.03;100.00;101194.19;5047126;28;20087;-66
2022/09/24 09:27:17;;;;;;;33.92;25.85;;;;;;;13.02;100.00;101184.25;5045693;28;20033;-66
2022/09/24 09:30:05;;;;;;;33.33;25.23;;;;;;;13.14;100.00;101188.72;5046405;28;20060;-66
2022/09/24 09:32:45;;;;;;;34.65;24.50;;;;;;;13.08;100.00;101197.13;5046345;28;20056;-66
2022/09/24 09:35:18;;;;;;;34.53;24.70;;;;;;;13.10;100.00;101193.03;5046336;28;20423;-66
2022/09/24 09:37:58;;;;;;;31.80;23.42;;;;;;;13.14;100.00;101193.41;5043635;28;20044;-66
2022/09/24 09:40:40;;;;;;;35.28;24.35;;;;;;;13.17;100.00;101196.50;5043774;28;20037;-66
2022/09/24 09:43:11;;;;;;;33.83;24.85;;;;;;;13.23;100.00;101195.59;5050260;28;20033;-66
2022/09/24 09:45:42;;;;;;;36.45;25.27;;;;;;;13.30;100.00;101186.34;5050165;28;20060;-67
2022/09/24 09:48:15;;;;;;;36.47;25.35;;;;;;;13.38;100.00;101192.34;5047494;28;20056;-67
2022/09/24 09:50:45;;;;;;;34.55;24.48;;;;;;;13.43;100.00;101194.34;5050280;28;20957;-66
2022/09/24 09:53:28;;;;;;;36.60;27.02;;;;;;;13.49;100.00;101194.25;5050880;28;20033;-66
2022/09/24 09:56:06;;;;;;;34.30;25.65;;;;;;;13.48;100.00;101194.47;5050451;28;20100;-66
2022/09/24 09:58:34;;;;;;;33.10;24.38;;;;;;;13.41;100.00;101194.59;5050474;28;20099;-66
2022/09/24 10:01:11;;;;;;;36.38;26.10;;;;;;;13.46;100.00;101191.97;5048258;28;20643;-67
2022/09/24 10:03:43;;;;;;;35.28;25.65;;;;;;;13.54;100.00;101203.72;5050990;28;20107;-66
2022/09/24 10:06:11;;;;;;;33.72;25.23;;;;;;;13.54;100.00;101198.22;5049919;28;20087;-66
2022/09/24 10:08:36;;;;;;;38.47;26.70;;;;;;;13.61;100.00;101193.38;5049279;28;20028;-66
2022/09/24 10:11:02;;;;;;;36.33;26.50;;;;;;;13.69;100.00;101196.63;5050144;28;20029;-66
2022/09/24 10:13:30;;;;;;;37.13;25.63;;;;;;;13.77;100.00;101195.38;5050900;28;20394;-66
2022/09/24 10:15:58;;;;;;;36.78;28.10;;;;;;;13.85;100.00;101202.47;5049108;28;20442;-66
2022/09/24 10:18:31;;;;;;;37.08;26.63;;;;;;;13.90;100.00;101194.28;5048146;28;20111;-66
2022/09/24 10:21:01;;;;;;;33.80;25.90;;;;;;;13.81;100.00;101195.75;5047849;28;20371;-67
2022/09/24 10:23:39;;;;;;;37.00;28.65;;;;;;;13.83;100.00;101193.56;5048995;28;20116;-67
2022/09/24 10:26:05;;;;;;;36.05;27.30;;;;;;;13.80;100.00;101194.91;5050071;28;20517;-67
2022/09/24 10:31:22;;;;;;;39.58;28.35;;;;;;;13.82;100.00;101195.50;5049117;28;20039;-66
2022/09/24 10:33:51;;;;;;;38.40;26.33;;;;;;;13.76;100.00;101191.78;5049237;28;20025;-66
2022/09/24 10:36:25;;;;;;;37.72;26.30;;;;;;;13.73;100.00;101199.72;5049540;28;20040;-67
2022/09/24 10:39:14;;;;;;;38.78;26.92;;;;;;;13.76;100.00;101197.31;5049141;28;20128;-67
2022/09/24 10:41:50;;;;;;;34.90;26.45;;;;;;;13.76;100.00;101197.31;5047876;28;20049;-68
2022/09/24 10:44:17;;;;;;;35.40;25.38;;;;;;;13.82;100.00;101201.03;5049676;28;20043;-67
2022/09/24 10:46:50;;;;;;;35.22;25.85;;;;;;;13.84;100.00;101193.34;5049136;28;20086;-67
2022/09/24 10:49:30;;;;;;;36.38;26.35;;;;;;;13.86;100.00;101201.38;5049982;28;20036;-68
2022/09/24 10:52:21;;;;;;;39.33;27.15;;;;;;;13.88;100.00;101201.97;5047726;28;20025;-67
2022/09/24 10:55:09;;;;;;;39.97;27.10;;;;;;;13.85;100.00;101203.31;5049274;28;20410;-67
2022/09/24 10:57:51;;;;;;;35.92;26.73;;;;;;;13.93;100.00;101208.44;5030272;28;20033;-67
2022/09/24 11:00:27;;;;;;;37.15;26.92;;;;;;;13.94;100.00;101198.25;5029499;28;20124;-67
2022/09/24 11:03:23;;;;;;;33.22;25.48;;;;;;;14.00;100.00;101200.03;5030111;28;20399;-67
2022/09/24 11:05:54;;;;;;;34.35;25.77;;;;;;;14.10;100.00;101208.53;5036458;28;20047;-67
2022/09/24 11:08:26;;;;;;;34.88;26.75;;;;;;;14.17;100.00;101194.56;5049453;28;20115;-67
2022/09/24 11:11:15;;;;;;;37.03;26.35;;;;;;;14.25;100.00;101217.13;5047546;28;20069;-67
2022/09/24 11:14:01;;;;;;;35.22;24.70;;;;;;;14.23;99.17;101212.91;5019335;28;20048;-67
2022/09/24 11:16:48;;;;;;;36.58;26.45;;;;;;;14.25;99.32;101213.50;5045217;28;20717;-67
2022/09/24 11:19:24;;;;;;;34.65;25.35;;;;;;;14.30;98.41;101213.63;5049323;28;20033;-67
2022/09/24 11:22:08;;;;;;;34.78;25.13;;;;;;;14.34;98.18;101209.25;5047916;28;20036;-67
2022/09/24 11:24:52;;;;;;;34.47;24.65;;;;;;;14.31;97.10;101223.56;5049866;28;20041;-67
2022/09/24 11:27:36;;;;;;;32.65;25.25;;;;;;;14.38;98.64;101217.88;5047856;28;20040;-67
2022/09/24 11:30:16;;;;;;;33.10;25.23;;;;;;;14.29;97.45;101217.44;5047967;28;20037;-66
2022/09/24 11:33:11;;;;;;;35.08;24.73;;;;;;;14.31;98.55;101218.06;5047354;28;20419;-67